createdAt,value
2022-12-28T00:01:23.889Z,7.20
2022-12-28T00:03:54.238Z,7.16
2022-12-28T00:06:24.057Z,7.13
2022-12-28T00:08:54.585Z,7.20
2022-12-28T00:11:27.945Z,7.14
2022-12-28T00:14:00.702Z,7.23
2022-12-28T00:16:31.149Z,7.16
2022-12-28T00:19:02.967Z,7.19
2022-12-28T00:21:31.445Z,7.25
2022-12-28T00:24:02.061Z,7.30
2022-12-28T00:26:32.845Z,7.22
2022-12-28T00:29:05.125Z,7.25
2022-12-28T00:31:33.678Z,7.25
2022-12-28T00:34:03.596Z,7.19
2022-12-28T00:37:10.534Z,7.25
2022-12-28T00:39:20.087Z,7.24
2022-12-28T00:41:48.391Z,7.23
2022-12-28T00:44:16.467Z,7.23
2022-12-28T00:46:44.795Z,7.19
2022-12-28T00:49:14.291Z,7.19
2022-12-28T00:51:42.354Z,7.14
2022-12-28T00:54:10.997Z,7.12
2022-12-28T00:56:41.150Z,7.10
2022-12-28T00:59:09.228Z,7.12
2022-12-28T01:01:37.670Z,7.00
2022-12-28T01:04:05.931Z,6.99
2022-12-28T01:06:35.404Z,7.02
2022-12-28T01:09:03.572Z,6.86
2022-12-28T01:11:32.670Z,6.82
2022-12-28T01:14:02.884Z,6.74
2022-12-28T01:16:35.024Z,6.71
2022-12-28T01:19:05.896Z,6.76
2022-12-28T01:21:36.883Z,6.76
2022-12-28T01:24:08.072Z,6.77
2022-12-28T01:26:36.331Z,6.78
2022-12-28T01:29:04.511Z,6.79
2022-12-28T01:31:32.644Z,6.80
2022-12-28T01:34:01.079Z,6.74
2022-12-28T01:36:32.373Z,6.68
2022-12-28T01:39:04.855Z,6.69
2022-12-28T01:41:34.539Z,6.72
2022-12-28T01:44:40.924Z,6.74
2022-12-28T01:47:14.092Z,6.70
2022-12-28T01:49:46.159Z,6.64
2022-12-28T01:52:17.339Z,6.52
2022-12-28T01:54:51.173Z,6.51
2022-12-28T01:57:21.551Z,6.45
2022-12-28T01:59:56.036Z,6.53
2022-12-28T02:02:24.558Z,6.52
2022-12-28T02:04:52.650Z,6.52
2022-12-28T02:07:28.456Z,6.52
2022-12-28T02:10:41.569Z,6.49
2022-12-28T02:12:46.218Z,6.43
2022-12-28T02:15:18.327Z,6.41
2022-12-28T02:17:49.537Z,6.39
2022-12-28T02:20:18.104Z,6.38
2022-12-28T02:23:15.640Z,6.38
2022-12-28T02:26:24.913Z,6.30
2022-12-28T02:29:26.332Z,6.32
2022-12-28T02:32:01.367Z,6.18
2022-12-28T02:34:37.040Z,6.25
2022-12-28T02:37:11.634Z,6.25
2022-12-28T02:39:45.380Z,6.24
2022-12-28T02:42:15.100Z,6.20
2022-12-28T02:45:02.095Z,6.20
2022-12-28T02:47:47.109Z,6.16
2022-12-28T02:50:17.566Z,6.10
2022-12-28T02:53:10.266Z,6.10
2022-12-28T02:56:13.694Z,6.12
2022-12-28T02:59:22.658Z,6.13
2022-12-28T03:02:13.049Z,6.12
2022-12-28T03:04:56.605Z,6.12
2022-12-28T03:07:51.614Z,6.13
2022-12-28T03:10:25.027Z,6.20
2022-12-28T03:12:59.936Z,6.14
2022-12-28T03:15:32.307Z,6.18
2022-12-28T03:18:25.907Z,6.27
2022-12-28T03:21:13.682Z,6.26
2022-12-28T03:24:01.446Z,6.35
2022-12-28T03:26:50.138Z,6.36
2022-12-28T03:29:38.629Z,6.37
2022-12-28T03:32:07.980Z,6.37
2022-12-28T03:34:38.428Z,6.37
2022-12-28T03:37:13.210Z,6.32
2022-12-28T03:39:46.565Z,6.25
2022-12-28T03:42:35.044Z,6.09
2022-12-28T03:45:09.546Z,5.93
2022-12-28T03:47:39.897Z,5.87
2022-12-28T03:50:10.203Z,5.88
2022-12-28T03:52:38.328Z,5.93
2022-12-28T03:55:07.153Z,5.90
2022-12-28T03:57:35.151Z,5.90
2022-12-28T04:00:03.196Z,5.76
2022-12-28T04:02:31.300Z,5.79
2022-12-28T04:04:59.417Z,5.77
2022-12-28T04:07:28.878Z,5.71
2022-12-28T04:09:56.877Z,5.77
2022-12-28T04:12:24.889Z,5.79
2022-12-28T04:14:52.985Z,5.74
2022-12-28T04:17:20.960Z,5.79
2022-12-28T04:19:48.960Z,5.76
2022-12-28T04:22:16.943Z,5.78
2022-12-28T04:24:46.332Z,5.74
2022-12-28T04:27:14.299Z,5.77
2022-12-28T04:29:42.329Z,5.75
2022-12-28T04:32:10.560Z,5.72
2022-12-28T04:34:40.905Z,5.70
2022-12-28T04:37:12.690Z,5.76
2022-12-28T04:39:55.665Z,5.77
2022-12-28T04:42:27.257Z,5.83
2022-12-28T04:44:55.281Z,5.87
2022-12-28T04:47:23.250Z,5.82
2022-12-28T04:49:51.637Z,5.90
2022-12-28T04:52:19.720Z,5.89
2022-12-28T04:54:47.731Z,5.87
2022-12-28T04:57:15.833Z,5.83
2022-12-28T04:59:45.443Z,5.91
2022-12-28T05:02:13.630Z,5.96
2022-12-28T05:04:41.703Z,5.94
2022-12-28T05:07:09.779Z,6.07
2022-12-28T05:09:37.728Z,6.12
2022-12-28T05:12:06.417Z,6.28
2022-12-28T05:14:37.161Z,6.38
2022-12-28T05:17:07.109Z,6.37
2022-12-28T05:19:35.259Z,6.33
2022-12-28T05:22:03.318Z,6.40
2022-12-28T05:24:31.501Z,6.41
2022-12-28T05:26:59.467Z,6.40
2022-12-28T05:29:27.488Z,6.34
2022-12-28T05:31:55.486Z,6.24
2022-12-28T05:34:27.410Z,6.19
2022-12-28T05:36:55.421Z,6.27
2022-12-28T05:39:23.337Z,6.20
2022-12-28T05:41:51.412Z,6.20
2022-12-28T05:44:19.478Z,6.07
2022-12-28T05:46:47.572Z,6.08
2022-12-28T05:49:15.564Z,6.04
2022-12-28T05:51:44.878Z,5.89
2022-12-28T05:54:12.885Z,5.86
2022-12-28T05:56:41.553Z,5.87
2022-12-28T05:59:11.465Z,5.91
2022-12-28T06:01:41.319Z,5.83
2022-12-28T06:04:16.547Z,5.83
2022-12-28T06:06:46.821Z,5.89
2022-12-28T06:09:15.618Z,5.98
2022-12-28T06:11:44.474Z,5.95
2022-12-28T06:14:12.402Z,5.94
2022-12-28T06:16:43.491Z,5.91
2022-12-28T06:19:14.857Z,5.86
2022-12-28T06:21:43.654Z,5.84
2022-12-28T06:24:13.989Z,5.69
2022-12-28T06:26:43.329Z,5.56
2022-12-28T06:29:11.529Z,5.64
2022-12-28T06:31:41.238Z,5.40
2022-12-28T06:34:10.786Z,5.65
2022-12-28T06:36:40.857Z,5.72
2022-12-28T06:39:11.064Z,5.65
2022-12-28T06:41:41.032Z,5.66
2022-12-28T06:44:10.859Z,5.69
2022-12-28T06:46:40.076Z,5.65
2022-12-28T06:49:08.073Z,5.64
2022-12-28T06:51:40.709Z,5.57
2022-12-28T06:54:09.410Z,5.70
2022-12-28T06:56:38.519Z,5.78
2022-12-28T06:59:11.069Z,5.76
2022-12-28T07:01:41.026Z,5.83
2022-12-28T07:04:11.539Z,5.84
2022-12-28T07:06:41.561Z,5.77
2022-12-28T07:09:13.589Z,5.87
2022-12-28T07:11:41.933Z,5.94
2022-12-28T07:14:11.724Z,5.92
2022-12-28T07:19:06.644Z,6.02
2022-12-28T07:21:37.079Z,6.10
2022-12-28T07:24:07.067Z,6.11
2022-12-28T07:26:37.102Z,6.18
2022-12-28T07:29:07.492Z,6.20
2022-12-28T07:31:44.684Z,6.43
2022-12-28T07:34:14.071Z,6.51
2022-12-28T07:36:42.281Z,6.74
2022-12-28T07:39:10.676Z,6.67
2022-12-28T07:41:39.170Z,6.57
2022-12-28T07:44:07.374Z,6.53
2022-12-28T07:46:38.343Z,6.68
2022-12-28T07:49:06.643Z,6.83
2022-12-28T07:51:36.357Z,6.85
2022-12-28T07:54:05.295Z,6.87
2022-12-28T07:59:02.818Z,7.05
2022-12-28T08:01:33.369Z,7.18
2022-12-28T08:04:05.544Z,7.23
2022-12-28T08:06:36.308Z,7.09
2022-12-28T08:09:06.486Z,7.16
2022-12-28T08:11:36.834Z,7.09
2022-12-28T08:14:06.492Z,7.02
2022-12-28T08:16:36.284Z,6.97
2022-12-28T08:19:06.250Z,6.84
2022-12-28T08:21:37.416Z,6.87
2022-12-28T08:24:06.934Z,6.83
2022-12-28T08:26:37.146Z,6.89
2022-12-28T08:29:07.429Z,6.77
2022-12-28T08:31:37.568Z,6.62
2022-12-28T08:34:11.949Z,6.57
2022-12-28T08:36:39.914Z,6.63
2022-12-28T08:39:08.363Z,6.75
2022-12-28T08:41:36.613Z,6.75
2022-12-28T08:44:05.388Z,6.72
2022-12-28T08:46:36.225Z,6.57
2022-12-28T08:49:07.011Z,6.69
2022-12-28T08:51:41.821Z,6.63
2022-12-28T08:54:10.978Z,6.53
2022-12-28T08:56:40.647Z,6.52
2022-12-28T08:59:09.217Z,6.46
2022-12-28T09:01:44.273Z,6.44
2022-12-28T09:04:16.378Z,6.36
2022-12-28T09:06:44.547Z,6.56
2022-12-28T09:09:14.849Z,6.65
2022-12-28T09:11:43.106Z,6.72
2022-12-28T09:14:18.857Z,6.77
2022-12-28T09:16:50.810Z,6.83
2022-12-28T09:19:21.513Z,6.76
2022-12-28T09:21:52.740Z,6.68
2022-12-28T09:24:20.860Z,6.73
2022-12-28T09:26:51.241Z,6.56
2022-12-28T09:29:19.436Z,6.47
2022-12-28T09:31:48.276Z,6.35
2022-12-28T09:34:35.613Z,6.52
2022-12-28T09:37:11.649Z,6.65
2022-12-28T09:39:39.917Z,6.53
2022-12-28T09:42:15.987Z,6.65
2022-12-28T09:44:50.679Z,6.62
2022-12-28T09:47:30.271Z,6.75
2022-12-28T09:50:18.600Z,6.89
2022-12-28T09:52:58.785Z,6.84
2022-12-28T09:55:27.776Z,6.79
2022-12-28T09:57:58.570Z,6.90
2022-12-28T10:00:40.594Z,6.98
2022-12-28T10:03:15.977Z,7.14
2022-12-28T10:05:44.882Z,7.17
2022-12-28T10:08:16.966Z,7.14
2022-12-28T10:10:49.013Z,7.22
2022-12-28T10:13:53.022Z,7.40
2022-12-28T10:16:19.225Z,7.45
2022-12-28T10:18:48.033Z,7.53
2022-12-28T10:21:20.061Z,7.56
2022-12-28T10:26:44.216Z,7.75
2022-12-28T10:29:18.059Z,7.88
2022-12-28T10:31:58.343Z,7.87
2022-12-28T10:34:33.408Z,7.90
2022-12-28T10:37:14.807Z,7.83
2022-12-28T10:39:53.093Z,7.96
2022-12-28T10:42:27.723Z,8.21
2022-12-28T10:45:04.204Z,8.17
2022-12-28T10:47:36.072Z,8.26
2022-12-28T10:52:59.125Z,8.50
2022-12-28T10:55:34.438Z,8.57
2022-12-28T10:58:31.197Z,8.67
2022-12-28T11:01:03.284Z,8.61
2022-12-28T11:03:35.454Z,8.38
2022-12-28T11:06:12.401Z,8.45
2022-12-28T11:08:41.528Z,8.58
2022-12-28T11:11:19.560Z,8.65
2022-12-28T11:13:53.919Z,8.74
2022-12-28T11:16:22.392Z,8.94
2022-12-28T11:18:51.320Z,9.02
2022-12-28T11:21:23.845Z,9.05
2022-12-28T11:23:53.567Z,8.96
2022-12-28T11:26:24.337Z,8.93
2022-12-28T11:28:53.859Z,8.84
2022-12-28T11:31:31.573Z,8.79
2022-12-28T11:34:04.699Z,8.67
2022-12-28T11:36:38.698Z,8.50
2022-12-28T11:39:32.080Z,8.35
2022-12-28T11:42:37.297Z,8.49
2022-12-28T11:44:53.627Z,8.38
2022-12-28T11:47:33.520Z,8.40
2022-12-28T11:50:50.518Z,8.40
2022-12-28T11:53:24.503Z,8.26
2022-12-28T11:56:04.462Z,8.22
2022-12-28T11:59:06.010Z,8.26
2022-12-28T12:01:45.049Z,8.21
2022-12-28T12:04:46.372Z,8.30
2022-12-28T12:07:31.702Z,8.29
2022-12-28T12:10:22.931Z,8.25
2022-12-28T12:12:54.206Z,8.24
2022-12-28T12:15:34.640Z,8.42
2022-12-28T12:18:06.127Z,8.36
2022-12-28T12:20:56.335Z,8.47
2022-12-28T12:23:38.263Z,8.45
2022-12-28T12:26:21.105Z,8.36
2022-12-28T12:28:52.610Z,8.44
2022-12-28T12:31:30.131Z,8.30
2022-12-28T12:34:19.052Z,8.31
2022-12-28T12:37:26.441Z,8.39
2022-12-28T12:40:09.468Z,8.26
2022-12-28T12:42:46.992Z,8.26
2022-12-28T12:45:24.082Z,8.38
2022-12-28T12:48:13.661Z,8.30
2022-12-28T12:51:00.927Z,8.32
2022-12-28T12:53:48.417Z,8.25
2022-12-28T12:56:32.922Z,8.32
2022-12-28T12:59:20.851Z,8.19
2022-12-28T13:01:56.837Z,8.18
2022-12-28T13:04:29.330Z,8.02
2022-12-28T13:07:00.094Z,8.12
2022-12-28T13:09:31.145Z,8.10
2022-12-28T13:12:00.135Z,8.14
2022-12-28T13:14:28.434Z,8.27
2022-12-28T13:16:59.948Z,8.23
2022-12-28T13:19:30.551Z,8.16
2022-12-28T13:22:00.113Z,8.15
2022-12-28T13:24:31.168Z,8.11
2022-12-28T13:27:01.188Z,8.19
2022-12-28T13:29:36.348Z,8.21
2022-12-28T13:32:05.441Z,8.26
2022-12-28T13:34:36.271Z,8.36
2022-12-28T13:37:14.732Z,8.30
2022-12-28T13:39:42.846Z,8.24
2022-12-28T13:42:15.978Z,8.25
2022-12-28T13:44:46.766Z,8.18
2022-12-28T13:47:21.587Z,8.21
2022-12-28T13:49:58.082Z,8.13
2022-12-28T13:52:31.477Z,8.03
2022-12-28T13:55:03.285Z,8.01
2022-12-28T13:57:55.692Z,7.97
2022-12-28T14:00:24.362Z,7.99
2022-12-28T14:02:56.575Z,7.94
2022-12-28T14:05:28.850Z,7.94
2022-12-28T14:07:59.141Z,7.87
2022-12-28T14:10:28.103Z,7.87
2022-12-28T14:12:58.233Z,7.92
2022-12-28T14:15:27.599Z,7.89
2022-12-28T14:17:56.851Z,7.77
2022-12-28T14:20:26.559Z,7.81
2022-12-28T14:22:54.931Z,7.78
2022-12-28T14:25:27.282Z,7.85
2022-12-28T14:28:08.687Z,7.72
2022-12-28T14:30:41.863Z,7.79
2022-12-28T14:33:20.833Z,7.64
2022-12-28T14:35:56.364Z,7.72
2022-12-28T14:38:28.443Z,7.75
2022-12-28T14:40:58.642Z,7.69
2022-12-28T14:43:29.079Z,7.75
2022-12-28T14:46:05.826Z,7.51
2022-12-28T14:48:40.924Z,7.52
2022-12-28T14:51:31.756Z,7.59
2022-12-28T14:54:20.041Z,7.61
2022-12-28T14:56:52.333Z,7.51
2022-12-28T14:59:26.368Z,7.52
2022-12-28T15:01:55.058Z,7.51
2022-12-28T15:04:29.653Z,7.45
2022-12-28T15:06:59.231Z,7.44
2022-12-28T15:09:27.318Z,7.45
2022-12-28T15:12:11.918Z,7.44
2022-12-28T15:14:39.970Z,7.37
2022-12-28T15:17:09.091Z,7.39
2022-12-28T15:19:37.559Z,7.44
2022-12-28T15:22:07.262Z,7.47
2022-12-28T15:24:35.553Z,7.31
2022-12-28T15:27:04.462Z,7.20
2022-12-28T15:30:05.291Z,7.25
2022-12-28T15:32:21.583Z,7.26
2022-12-28T15:34:49.695Z,7.13
2022-12-28T15:37:19.423Z,7.18
2022-12-28T15:39:47.568Z,7.15
2022-12-28T15:42:15.897Z,7.03
2022-12-28T15:44:44.934Z,7.12
2022-12-28T15:47:13.144Z,7.05
2022-12-28T15:49:41.179Z,7.01
2022-12-28T15:52:09.312Z,6.97
2022-12-28T15:54:41.333Z,7.06
2022-12-28T15:57:15.696Z,7.09
2022-12-28T15:59:43.932Z,6.97
2022-12-28T16:02:12.433Z,7.07
2022-12-28T16:04:40.698Z,7.03
2022-12-28T16:07:09.133Z,7.12
2022-12-28T16:09:38.951Z,7.00
2022-12-28T16:12:08.324Z,6.99
2022-12-28T16:14:42.491Z,6.86
2022-12-28T16:17:10.654Z,6.97
2022-12-28T16:19:38.708Z,6.95
2022-12-28T16:22:07.081Z,6.85
2022-12-28T16:24:36.394Z,6.98
2022-12-28T16:27:07.523Z,6.92
2022-12-28T16:29:36.687Z,6.92
2022-12-28T16:32:05.173Z,6.87
2022-12-28T16:34:34.695Z,6.87
2022-12-28T16:37:02.839Z,6.70
2022-12-28T16:39:31.415Z,6.72
2022-12-28T16:41:59.713Z,6.87
2022-12-28T16:44:30.320Z,6.75
2022-12-28T16:46:59.981Z,6.79
2022-12-28T16:49:31.091Z,6.74
2022-12-28T16:51:59.226Z,6.87
2022-12-28T16:54:28.445Z,6.92
2022-12-28T16:56:57.217Z,6.89
2022-12-28T16:59:27.231Z,6.92
2022-12-28T17:01:58.012Z,6.95
2022-12-28T17:04:26.779Z,6.88
2022-12-28T17:06:56.020Z,6.97
2022-12-28T17:09:25.666Z,6.92
2022-12-28T17:11:57.293Z,6.71
2022-12-28T17:14:36.907Z,6.94
2022-12-28T17:17:07.399Z,6.80
2022-12-28T17:19:36.157Z,6.87
2022-12-28T17:22:04.653Z,6.93
2022-12-28T17:24:33.961Z,6.84
2022-12-28T17:27:07.770Z,6.81
2022-12-28T17:29:40.505Z,6.64
2022-12-28T17:32:11.041Z,6.86
2022-12-28T17:34:39.821Z,6.78
2022-12-28T17:37:08.497Z,6.75
2022-12-28T17:39:40.266Z,6.67
2022-12-28T17:42:09.620Z,6.77
2022-12-28T17:44:37.839Z,6.66
2022-12-28T17:47:06.369Z,6.69
2022-12-28T17:49:35.962Z,6.69
2022-12-28T17:52:04.640Z,6.67
2022-12-28T17:54:32.791Z,6.59
2022-12-28T17:57:01.143Z,6.62
2022-12-28T17:59:29.683Z,6.52
2022-12-28T18:01:58.338Z,6.45
2022-12-28T18:04:27.660Z,6.60
2022-12-28T18:06:57.165Z,6.56
2022-12-28T18:09:28.175Z,6.40
2022-12-28T18:11:56.426Z,6.56
2022-12-28T18:14:24.870Z,6.53
2022-12-28T18:16:53.399Z,6.59
2022-12-28T18:19:22.034Z,6.37
2022-12-28T18:21:50.939Z,6.61
2022-12-28T18:24:21.191Z,6.68
2022-12-28T18:26:49.467Z,6.66
2022-12-28T18:29:18.035Z,6.51
2022-12-28T18:31:46.212Z,6.68
2022-12-28T18:34:14.386Z,6.61
2022-12-28T18:36:43.728Z,6.63
2022-12-28T18:39:11.872Z,6.56
2022-12-28T18:41:42.158Z,6.54
2022-12-28T18:44:10.962Z,6.64
2022-12-28T18:46:39.425Z,6.77
2022-12-28T18:49:07.807Z,6.60
2022-12-28T18:51:37.034Z,6.68
2022-12-28T18:54:05.733Z,6.63
2022-12-28T18:56:34.047Z,6.60
2022-12-28T18:59:03.653Z,6.57
2022-12-28T19:04:20.855Z,6.53
2022-12-28T19:06:49.159Z,6.34
2022-12-28T19:09:17.408Z,6.44
2022-12-28T19:11:45.980Z,6.32
2022-12-28T19:14:17.044Z,6.37
2022-12-28T19:16:45.483Z,6.22
2022-12-28T19:19:13.903Z,6.30
2022-12-28T19:21:43.858Z,6.29
2022-12-28T19:24:18.462Z,6.25
2022-12-28T19:26:48.797Z,6.20
2022-12-28T19:29:18.294Z,6.27
2022-12-28T19:31:46.339Z,6.17
2022-12-28T19:34:15.966Z,6.20
2022-12-28T19:36:44.009Z,6.06
2022-12-28T19:39:12.493Z,6.05
2022-12-28T19:41:40.775Z,6.01
2022-12-28T19:44:09.233Z,6.05
2022-12-28T19:46:39.489Z,6.14
2022-12-28T19:49:08.271Z,6.09
2022-12-28T19:51:36.429Z,6.07
2022-12-28T19:54:05.139Z,6.08
2022-12-28T19:56:33.803Z,6.02
2022-12-28T19:59:06.488Z,5.99
2022-12-28T20:01:36.257Z,6.07
2022-12-28T20:04:13.615Z,5.81
2022-12-28T20:06:43.404Z,5.97
2022-12-28T20:09:12.433Z,5.96
2022-12-28T20:11:40.936Z,6.04
2022-12-28T20:14:13.715Z,6.05
2022-12-28T20:16:43.078Z,5.98
2022-12-28T20:19:13.943Z,5.99
2022-12-28T20:21:42.749Z,6.00
2022-12-28T20:24:13.021Z,5.94
2022-12-28T20:26:42.127Z,5.99
2022-12-28T20:29:10.232Z,5.67
2022-12-28T20:31:38.420Z,5.84
2022-12-28T20:34:06.664Z,5.80
2022-12-28T20:36:36.664Z,5.78
2022-12-28T20:39:05.075Z,5.79
2022-12-28T20:41:51.384Z,5.84
2022-12-28T20:44:25.704Z,5.79
2022-12-28T20:46:54.347Z,5.70
2022-12-28T20:49:23.091Z,5.76
2022-12-28T20:51:53.280Z,5.63
2022-12-28T20:54:22.580Z,5.63
2022-12-28T20:56:55.513Z,5.53
2022-12-28T20:59:26.271Z,5.35
2022-12-28T21:01:55.132Z,5.46
2022-12-28T21:04:24.619Z,5.37
2022-12-28T21:06:54.623Z,5.43
2022-12-28T21:09:22.870Z,5.33
2022-12-28T21:11:51.243Z,5.13
2022-12-28T21:14:19.633Z,5.18
2022-12-28T21:16:49.244Z,5.15
2022-12-28T21:19:17.793Z,5.08
2022-12-28T21:21:47.469Z,5.02
2022-12-28T21:24:17.531Z,4.95
2022-12-28T21:26:45.668Z,4.92
2022-12-28T21:29:13.702Z,4.78
2022-12-28T21:31:41.734Z,4.81
2022-12-28T21:34:10.217Z,4.85
2022-12-28T21:36:39.115Z,4.67
2022-12-28T21:39:07.309Z,4.55
2022-12-28T21:41:53.004Z,4.59
2022-12-28T21:44:23.262Z,4.56
2022-12-28T21:46:52.398Z,4.56
2022-12-28T21:49:21.256Z,4.58
2022-12-28T21:51:50.392Z,4.50
2022-12-28T21:54:20.163Z,4.46
2022-12-28T21:56:52.391Z,4.42
2022-12-28T21:59:21.138Z,4.38
2022-12-28T22:02:06.867Z,4.34
2022-12-28T22:04:58.660Z,4.28
2022-12-28T22:10:33.621Z,4.24
2022-12-28T22:13:09.062Z,4.31
2022-12-28T22:19:01.072Z,4.24
2022-12-28T22:21:25.773Z,4.21
2022-12-28T22:23:53.871Z,4.27
2022-12-28T22:26:21.999Z,4.37
2022-12-28T22:28:52.290Z,4.37
2022-12-28T22:31:21.924Z,4.48
2022-12-28T22:33:50.585Z,4.46
2022-12-28T22:36:21.058Z,4.46
2022-12-28T22:38:49.316Z,4.49
2022-12-28T22:41:17.494Z,4.56
2022-12-28T22:43:52.365Z,4.56
2022-12-28T22:46:21.914Z,4.50
2022-12-28T22:48:50.735Z,4.48
2022-12-28T22:51:18.827Z,4.48
2022-12-28T22:53:48.221Z,4.54
2022-12-28T22:56:20.139Z,4.59
2022-12-28T22:58:51.328Z,4.58
2022-12-28T23:01:22.441Z,4.59
2022-12-28T23:03:51.063Z,4.51
2022-12-28T23:06:21.351Z,4.49
2022-12-28T23:08:49.899Z,4.72
2022-12-28T23:11:36.382Z,4.56
2022-12-28T23:14:25.607Z,4.67
2022-12-28T23:16:54.719Z,4.67
2022-12-28T23:19:40.449Z,4.76
2022-12-28T23:22:26.875Z,4.71
2022-12-28T23:25:12.437Z,4.61
2022-12-28T23:27:42.654Z,4.61
2022-12-28T23:30:17.677Z,4.60
2022-12-28T23:32:46.004Z,4.65
2022-12-28T23:35:14.281Z,4.81
2022-12-28T23:37:44.128Z,4.77
2022-12-28T23:40:15.290Z,4.69
2022-12-28T23:42:44.436Z,4.80
2022-12-28T23:45:15.484Z,4.79
2022-12-28T23:47:44.066Z,4.62
2022-12-28T23:50:13.097Z,4.66
2022-12-28T23:52:41.735Z,4.48
2022-12-28T23:55:11.479Z,4.65
2022-12-28T23:57:39.847Z,4.64
